createdAt,value
2023-03-03T00:00:31.527Z,3.20
2023-03-03T00:05:47.076Z,2.80
2023-03-03T00:11:05.220Z,2.90
2023-03-03T00:16:35.534Z,2.80
2023-03-03T00:21:52.708Z,2.60
2023-03-03T00:27:50.675Z,2.60
2023-03-03T00:33:34.817Z,2.50
2023-03-03T00:38:50.820Z,2.40
2023-03-03T00:44:38.686Z,2.50
2023-03-03T00:50:23.922Z,2.70
2023-03-03T00:55:40.653Z,2.80
2023-03-03T01:00:56.907Z,3.00
2023-03-03T01:06:13.050Z,3.10
2023-03-03T01:11:29.515Z,3.00
2023-03-03T01:16:45.138Z,3.00
2023-03-03T01:22:01.146Z,3.20
2023-03-03T01:27:16.429Z,3.00
2023-03-03T01:32:32.825Z,2.90
2023-03-03T01:37:48.946Z,2.70
2023-03-03T01:43:05.387Z,2.70
2023-03-03T01:48:42.895Z,2.70
2023-03-03T01:54:01.157Z,2.70
2023-03-03T01:59:24.762Z,2.60
2023-03-03T02:04:40.836Z,2.80
2023-03-03T02:10:12.725Z,2.70
2023-03-03T02:15:37.782Z,2.60
2023-03-03T02:21:07.577Z,2.50
2023-03-03T02:26:26.363Z,2.40
2023-03-03T02:31:43.360Z,2.70
2023-03-03T02:36:58.925Z,2.70
2023-03-03T02:42:24.060Z,2.70
2023-03-03T02:47:39.963Z,2.70
2023-03-03T02:52:55.793Z,2.70
2023-03-03T02:58:11.325Z,2.60
2023-03-03T03:03:27.495Z,2.40
2023-03-03T03:08:43.210Z,2.50
2023-03-03T03:13:59.163Z,2.50
2023-03-03T03:19:15.912Z,2.50
2023-03-03T03:24:31.661Z,2.50
2023-03-03T03:29:47.670Z,2.60
2023-03-03T03:35:03.622Z,2.50
2023-03-03T03:40:19.698Z,2.60
2023-03-03T03:45:35.722Z,2.70
2023-03-03T03:50:51.664Z,2.50
2023-03-03T03:56:08.094Z,2.50
2023-03-03T04:01:23.825Z,2.70
2023-03-03T04:06:39.594Z,2.70
2023-03-03T04:11:55.493Z,2.80
2023-03-03T04:17:21.118Z,2.80
2023-03-03T04:22:37.016Z,2.80
2023-03-03T04:27:53.240Z,2.60
2023-03-03T04:33:09.043Z,2.60
2023-03-03T04:38:24.804Z,2.40
2023-03-03T04:43:40.764Z,2.30
2023-03-03T04:48:57.115Z,2.20
2023-03-03T04:54:12.765Z,2.20
2023-03-03T04:59:28.657Z,2.20
2023-03-03T05:04:44.534Z,2.20
2023-03-03T05:10:00.515Z,2.30
2023-03-03T05:15:16.577Z,2.40
2023-03-03T05:20:32.150Z,2.40
2023-03-03T05:25:49.251Z,2.60
2023-03-03T05:31:05.785Z,2.50
2023-03-03T05:36:22.556Z,2.40
2023-03-03T05:41:38.341Z,2.40
2023-03-03T05:46:54.416Z,2.30
2023-03-03T05:52:10.443Z,2.30
2023-03-03T05:57:26.501Z,2.40
2023-03-03T06:02:43.273Z,2.60
2023-03-03T06:08:00.318Z,2.50
2023-03-03T06:13:16.612Z,2.50
2023-03-03T06:18:32.201Z,2.60
2023-03-03T06:23:48.010Z,2.70
2023-03-03T06:29:04.235Z,2.60
2023-03-03T06:34:20.263Z,2.60
2023-03-03T06:39:36.297Z,2.90
2023-03-03T06:44:52.166Z,3.10
2023-03-03T06:50:11.281Z,2.90
2023-03-03T06:55:26.847Z,2.90
2023-03-03T07:00:50.941Z,2.90
2023-03-03T07:06:21.400Z,3.20
2023-03-03T07:11:41.090Z,3.40
2023-03-03T07:17:00.813Z,3.50
2023-03-03T07:22:25.048Z,3.50
2023-03-03T07:27:40.585Z,3.40
2023-03-03T07:32:59.434Z,3.50
2023-03-03T07:38:39.501Z,3.80
2023-03-03T07:44:01.743Z,4.10
2023-03-03T07:49:37.080Z,3.90
2023-03-03T07:54:55.410Z,3.60
2023-03-03T08:00:17.534Z,3.80
2023-03-03T08:05:44.750Z,3.80
2023-03-03T08:11:01.996Z,3.70
2023-03-03T08:16:17.750Z,4.30
2023-03-03T08:21:35.554Z,4.40
2023-03-03T08:26:51.871Z,4.30
2023-03-03T08:32:07.720Z,4.40
2023-03-03T08:37:23.874Z,4.30
2023-03-03T08:42:39.725Z,4.40
2023-03-03T08:47:56.406Z,4.60
2023-03-03T08:53:13.655Z,5.00
2023-03-03T08:58:34.983Z,4.80
2023-03-03T09:03:51.094Z,4.90
2023-03-03T09:09:07.273Z,4.90
2023-03-03T09:14:23.123Z,5.20
2023-03-03T09:19:39.566Z,5.80
2023-03-03T09:24:59.124Z,5.70
2023-03-03T09:30:26.767Z,5.90
2023-03-03T09:35:42.847Z,5.60
2023-03-03T09:41:12.123Z,5.40
2023-03-03T09:47:05.362Z,5.50
2023-03-03T09:52:51.641Z,5.20
2023-03-03T09:58:46.067Z,5.10
2023-03-03T10:04:22.932Z,5.40
2023-03-03T10:10:20.432Z,5.30
2023-03-03T10:16:24.115Z,5.50
2023-03-03T10:21:52.798Z,5.70
2023-03-03T10:27:33.853Z,5.60
2023-03-03T10:33:06.556Z,5.90
2023-03-03T10:39:01.811Z,6.00
2023-03-03T10:44:17.340Z,6.10
2023-03-03T10:49:41.298Z,6.00
2023-03-03T10:55:34.187Z,6.20
2023-03-03T11:01:04.921Z,6.60
2023-03-03T11:06:53.363Z,6.60
2023-03-03T11:12:27.217Z,6.70
2023-03-03T11:18:06.605Z,6.90
2023-03-03T11:23:54.255Z,7.10
2023-03-03T11:29:54.105Z,7.30
2023-03-03T11:35:25.148Z,6.80
2023-03-03T11:40:59.339Z,6.90
2023-03-03T11:46:42.347Z,7.10
2023-03-03T11:52:20.056Z,7.60
2023-03-03T11:58:06.050Z,7.40
2023-03-03T12:03:38.853Z,7.70
2023-03-03T12:09:26.403Z,7.60
2023-03-03T12:14:49.125Z,8.20
2023-03-03T12:20:20.083Z,8.60
2023-03-03T12:25:56.367Z,8.50
2023-03-03T12:31:27.041Z,8.10
2023-03-03T12:37:30.686Z,8.10
2023-03-03T12:42:49.800Z,8.80
2023-03-03T12:48:13.840Z,9.00
2023-03-03T12:53:41.747Z,8.40
2023-03-03T12:59:30.323Z,8.80
2023-03-03T13:05:24.453Z,9.30
2023-03-03T13:10:47.482Z,9.20
2023-03-03T13:16:17.509Z,9.10
2023-03-03T13:21:55.103Z,8.40
2023-03-03T13:27:15.245Z,8.20
2023-03-03T13:32:52.917Z,8.40
2023-03-03T13:38:16.115Z,8.60
2023-03-03T13:43:50.178Z,9.30
2023-03-03T13:49:36.670Z,9.40
2023-03-03T13:54:56.550Z,9.10
2023-03-03T14:00:23.125Z,9.00
2023-03-03T14:05:48.697Z,9.00
2023-03-03T14:11:35.906Z,9.10
2023-03-03T14:17:00.839Z,8.80
2023-03-03T14:22:25.792Z,8.50
2023-03-03T14:27:47.395Z,8.50
2023-03-03T14:33:12.440Z,8.20
2023-03-03T14:38:34.581Z,8.00
2023-03-03T14:44:00.149Z,8.00
2023-03-03T14:49:33.055Z,7.90
2023-03-03T14:55:01.289Z,7.90
2023-03-03T15:00:20.378Z,7.90
2023-03-03T15:05:36.552Z,7.90
2023-03-03T15:10:52.278Z,8.00
2023-03-03T15:16:32.713Z,7.80
2023-03-03T15:21:56.350Z,7.60
2023-03-03T15:27:30.044Z,7.50
2023-03-03T15:33:04.376Z,7.60
2023-03-03T15:38:41.979Z,7.90
2023-03-03T15:44:06.096Z,7.50
2023-03-03T15:49:55.864Z,7.40
2023-03-03T15:55:24.608Z,7.40
2023-03-03T16:00:43.288Z,7.10
2023-03-03T16:06:12.632Z,7.00
2023-03-03T16:12:16.115Z,7.00
2023-03-03T16:17:53.824Z,6.90
2023-03-03T16:23:21.060Z,6.70
2023-03-03T16:29:04.544Z,6.50
2023-03-03T16:34:32.434Z,6.20
2023-03-03T16:40:11.256Z,6.00
2023-03-03T16:45:39.642Z,5.80
2023-03-03T16:51:43.054Z,5.70
2023-03-03T16:57:11.779Z,5.50
2023-03-03T17:02:46.666Z,5.30
2023-03-03T17:08:47.273Z,5.20
2023-03-03T17:14:32.449Z,5.10
2023-03-03T17:20:18.238Z,5.00
2023-03-03T17:26:01.787Z,4.90
2023-03-03T17:31:33.574Z,4.90
2023-03-03T17:37:00.773Z,5.10
2023-03-03T17:42:47.794Z,5.00
2023-03-03T17:48:21.949Z,5.00
2023-03-03T17:53:41.321Z,4.90
2023-03-03T17:59:26.517Z,5.10
2023-03-03T18:05:33.039Z,5.00
2023-03-03T18:11:09.199Z,5.00
2023-03-03T18:16:43.124Z,5.00
2023-03-03T18:22:22.425Z,5.10
2023-03-03T18:27:40.636Z,5.10
2023-03-03T18:32:56.519Z,5.00
2023-03-03T18:38:35.165Z,5.00
2023-03-03T18:43:54.202Z,5.00
2023-03-03T18:49:12.908Z,5.20
2023-03-03T18:54:30.940Z,5.20
2023-03-03T18:59:56.695Z,5.10
2023-03-03T19:05:12.353Z,4.90
2023-03-03T19:11:01.945Z,4.70
2023-03-03T19:16:25.314Z,4.80
2023-03-03T19:21:43.288Z,4.90
2023-03-03T19:27:30.621Z,4.80
2023-03-03T19:32:52.397Z,4.90
2023-03-03T19:38:35.452Z,4.80
2023-03-03T19:44:21.041Z,4.80
2023-03-03T19:50:01.173Z,4.90
2023-03-03T19:55:38.348Z,4.70
2023-03-03T20:00:59.725Z,4.70
2023-03-03T20:06:29.341Z,4.80
2023-03-03T20:11:48.613Z,4.80
2023-03-03T20:17:35.670Z,5.10
2023-03-03T20:23:05.408Z,5.20
2023-03-03T20:28:36.328Z,5.10
2023-03-03T20:34:11.083Z,5.20
2023-03-03T20:39:48.031Z,5.30
2023-03-03T20:45:42.160Z,5.00
2023-03-03T20:51:22.904Z,5.00
2023-03-03T20:56:50.422Z,4.90
2023-03-03T21:02:19.973Z,4.90
2023-03-03T21:07:36.885Z,4.80
2023-03-03T21:13:29.550Z,4.70
2023-03-03T21:18:57.248Z,4.80
2023-03-03T21:24:15.571Z,4.70
2023-03-03T21:29:33.750Z,4.80
2023-03-03T21:35:06.588Z,4.60
2023-03-03T21:40:30.077Z,4.40
2023-03-03T21:45:46.900Z,4.20
2023-03-03T21:51:02.933Z,4.20
2023-03-03T21:56:18.512Z,4.10
2023-03-03T22:01:35.881Z,4.10
2023-03-03T22:06:53.508Z,4.00
2023-03-03T22:12:09.486Z,3.90
2023-03-03T22:17:25.690Z,4.00
2023-03-03T22:22:42.395Z,3.90
2023-03-03T22:27:58.186Z,3.80
2023-03-03T22:33:14.030Z,3.90
2023-03-03T22:38:29.901Z,3.80
2023-03-03T22:43:45.857Z,3.90
2023-03-03T22:49:01.979Z,3.80
2023-03-03T22:54:18.081Z,3.70
2023-03-03T22:59:34.722Z,3.50
2023-03-03T23:04:51.870Z,3.40
2023-03-03T23:10:10.147Z,3.20
2023-03-03T23:15:26.254Z,3.30
2023-03-03T23:20:46.177Z,3.20
2023-03-03T23:26:02.457Z,3.20
2023-03-03T23:31:18.290Z,3.10
2023-03-03T23:36:34.091Z,3.30
2023-03-03T23:41:49.959Z,3.40
2023-03-03T23:47:07.051Z,3.60
2023-03-03T23:52:22.582Z,3.50
2023-03-03T23:57:38.439Z,3.30
